sensor_id;sensor_type;location;lat;lon;timestamp;P1;durP1;ratioP1;P2;durP2;ratioP2
20928;SDS011;21895;47.072;15.132;2022-12-07T00:01:36;57.27;;;11.33;;
20928;SDS011;21895;47.072;15.132;2022-12-07T00:04:06;40.20;;;10.93;;
20928;SDS011;21895;47.072;15.132;2022-12-07T00:06:36;76.17;;;11.63;;
20928;SDS011;21895;47.072;15.132;2022-12-07T00:09:05;57.50;;;10.97;;
20928;SDS011;21895;47.072;15.132;2022-12-07T00:11:36;43.23;;;10.60;;
20928;SDS011;21895;47.072;15.132;2022-12-07T00:14:04;137.07;;;13.30;;
20928;SDS011;21895;47.072;15.132;2022-12-07T00:16:36;154.87;;;13.87;;
20928;SDS011;21895;47.072;15.132;2022-12-07T00:19:03;175.03;;;14.03;;
20928;SDS011;21895;47.072;15.132;2022-12-07T00:21:31;117.50;;;13.40;;
20928;SDS011;21895;47.072;15.132;2022-12-07T00:24:00;119.63;;;13.87;;
20928;SDS011;21895;47.072;15.132;2022-12-07T00:26:30;176.60;;;13.97;;
20928;SDS011;21895;47.072;15.132;2022-12-07T00:29:03;133.20;;;13.30;;
20928;SDS011;21895;47.072;15.132;2022-12-07T00:31:35;101.83;;;13.23;;
20928;SDS011;21895;47.072;15.132;2022-12-07T00:34:04;133.93;;;13.87;;
20928;SDS011;21895;47.072;15.132;2022-12-07T00:36:42;117.80;;;12.97;;
20928;SDS011;21895;47.072;15.132;2022-12-07T00:39:08;77.60;;;13.10;;
20928;SDS011;21895;47.072;15.132;2022-12-07T00:41:35;101.57;;;13.20;;
20928;SDS011;21895;47.072;15.132;2022-12-07T00:44:02;88.50;;;11.37;;
20928;SDS011;21895;47.072;15.132;2022-12-07T00:46:29;52.80;;;9.60;;
20928;SDS011;21895;47.072;15.132;2022-12-07T00:48:56;66.57;;;9.70;;
20928;SDS011;21895;47.072;15.132;2022-12-07T00:51:23;63.73;;;9.67;;
20928;SDS011;21895;47.072;15.132;2022-12-07T00:53:51;82.97;;;11.30;;
20928;SDS011;21895;47.072;15.132;2022-12-07T00:56:22;40.87;;;9.37;;
20928;SDS011;21895;47.072;15.132;2022-12-07T00:58:59;34.63;;;10.03;;
20928;SDS011;21895;47.072;15.132;2022-12-07T01:01:29;32.97;;;9.83;;
20928;SDS011;21895;47.072;15.132;2022-12-07T01:03:59;42.00;;;9.80;;
20928;SDS011;21895;47.072;15.132;2022-12-07T01:06:29;28.70;;;8.90;;
20928;SDS011;21895;47.072;15.132;2022-12-07T01:08:56;29.00;;;7.97;;
20928;SDS011;21895;47.072;15.132;2022-12-07T01:11:24;30.27;;;10.07;;
20928;SDS011;21895;47.072;15.132;2022-12-07T01:13:55;36.83;;;8.83;;
20928;SDS011;21895;47.072;15.132;2022-12-07T01:16:24;29.13;;;7.40;;
20928;SDS011;21895;47.072;15.132;2022-12-07T01:18:53;18.07;;;7.67;;
20928;SDS011;21895;47.072;15.132;2022-12-07T01:21:22;15.73;;;6.43;;
20928;SDS011;21895;47.072;15.132;2022-12-07T01:23:58;42.27;;;7.60;;
20928;SDS011;21895;47.072;15.132;2022-12-07T01:26:25;42.47;;;7.60;;
20928;SDS011;21895;47.072;15.132;2022-12-07T01:28:52;32.20;;;8.03;;
20928;SDS011;21895;47.072;15.132;2022-12-07T01:31:23;28.57;;;10.07;;
20928;SDS011;21895;47.072;15.132;2022-12-07T01:33:53;30.03;;;8.97;;
20928;SDS011;21895;47.072;15.132;2022-12-07T01:36:27;21.20;;;9.17;;
20928;SDS011;21895;47.072;15.132;2022-12-07T01:39:02;26.97;;;9.63;;
20928;SDS011;21895;47.072;15.132;2022-12-07T01:41:32;18.27;;;8.40;;
20928;SDS011;21895;47.072;15.132;2022-12-07T01:44:09;30.13;;;9.40;;
20928;SDS011;21895;47.072;15.132;2022-12-07T01:46:44;19.80;;;7.13;;
20928;SDS011;21895;47.072;15.132;2022-12-07T01:49:42;20.73;;;8.07;;
20928;SDS011;21895;47.072;15.132;2022-12-07T01:55:04;18.27;;;7.70;;
20928;SDS011;21895;47.072;15.132;2022-12-07T01:57:37;25.50;;;8.53;;
20928;SDS011;21895;47.072;15.132;2022-12-07T02:00:09;23.53;;;7.90;;
20928;SDS011;21895;47.072;15.132;2022-12-07T02:02:37;27.83;;;7.53;;
20928;SDS011;21895;47.072;15.132;2022-12-07T02:05:52;38.60;;;7.63;;
20928;SDS011;21895;47.072;15.132;2022-12-07T02:08:20;31.43;;;7.87;;
20928;SDS011;21895;47.072;15.132;2022-12-07T02:10:47;43.17;;;8.37;;
20928;SDS011;21895;47.072;15.132;2022-12-07T02:13:15;38.57;;;8.97;;
20928;SDS011;21895;47.072;15.132;2022-12-07T02:15:57;28.90;;;8.33;;
20928;SDS011;21895;47.072;15.132;2022-12-07T02:21:12;20.77;;;8.37;;
20928;SDS011;21895;47.072;15.132;2022-12-07T02:26:11;25.60;;;8.63;;
20928;SDS011;21895;47.072;15.132;2022-12-07T02:29:40;24.00;;;7.93;;
20928;SDS011;21895;47.072;15.132;2022-12-07T02:32:41;20.10;;;7.43;;
20928;SDS011;21895;47.072;15.132;2022-12-07T02:35:51;16.00;;;6.50;;
20928;SDS011;21895;47.072;15.132;2022-12-07T02:38:55;20.37;;;6.70;;
20928;SDS011;21895;47.072;15.132;2022-12-07T02:42:03;18.30;;;6.53;;
20928;SDS011;21895;47.072;15.132;2022-12-07T02:46:01;13.27;;;5.67;;
20928;SDS011;21895;47.072;15.132;2022-12-07T02:48:33;22.90;;;6.43;;
20928;SDS011;21895;47.072;15.132;2022-12-07T02:51:01;16.07;;;6.03;;
20928;SDS011;21895;47.072;15.132;2022-12-07T02:53:35;14.23;;;6.37;;
20928;SDS011;21895;47.072;15.132;2022-12-07T03:03:10;17.10;;;6.50;;
20928;SDS011;21895;47.072;15.132;2022-12-07T03:09:26;17.33;;;6.70;;
20928;SDS011;21895;47.072;15.132;2022-12-07T03:12:22;12.83;;;6.03;;
20928;SDS011;21895;47.072;15.132;2022-12-07T03:15:05;14.53;;;5.90;;
20928;SDS011;21895;47.072;15.132;2022-12-07T03:17:42;15.53;;;5.90;;
20928;SDS011;21895;47.072;15.132;2022-12-07T03:20:12;12.67;;;5.87;;
20928;SDS011;21895;47.072;15.132;2022-12-07T03:22:45;13.83;;;5.27;;
20928;SDS011;21895;47.072;15.132;2022-12-07T03:25:13;15.80;;;5.80;;
20928;SDS011;21895;47.072;15.132;2022-12-07T03:27:44;15.23;;;6.30;;
20928;SDS011;21895;47.072;15.132;2022-12-07T03:30:28;14.13;;;5.87;;
20928;SDS011;21895;47.072;15.132;2022-12-07T03:33:12;12.90;;;5.13;;
20928;SDS011;21895;47.072;15.132;2022-12-07T03:35:48;12.90;;;6.03;;
20928;SDS011;21895;47.072;15.132;2022-12-07T03:38:38;10.23;;;4.90;;
20928;SDS011;21895;47.072;15.132;2022-12-07T03:44:08;14.90;;;6.37;;
20928;SDS011;21895;47.072;15.132;2022-12-07T03:47:00;14.47;;;6.03;;
20928;SDS011;21895;47.072;15.132;2022-12-07T03:49:41;16.30;;;6.23;;
20928;SDS011;21895;47.072;15.132;2022-12-07T03:52:26;16.63;;;5.77;;
20928;SDS011;21895;47.072;15.132;2022-12-07T03:59:55;14.00;;;6.07;;
20928;SDS011;21895;47.072;15.132;2022-12-07T04:02:25;16.17;;;6.37;;
20928;SDS011;21895;47.072;15.132;2022-12-07T04:04:55;14.07;;;5.30;;
20928;SDS011;21895;47.072;15.132;2022-12-07T04:07:22;16.23;;;5.97;;
20928;SDS011;21895;47.072;15.132;2022-12-07T04:09:48;9.90;;;5.20;;
20928;SDS011;21895;47.072;15.132;2022-12-07T04:12:15;11.83;;;5.37;;
20928;SDS011;21895;47.072;15.132;2022-12-07T04:14:41;11.90;;;5.00;;
20928;SDS011;21895;47.072;15.132;2022-12-07T04:17:08;12.87;;;5.40;;
20928;SDS011;21895;47.072;15.132;2022-12-07T04:19:34;12.50;;;5.53;;
20928;SDS011;21895;47.072;15.132;2022-12-07T04:22:02;12.87;;;5.00;;
20928;SDS011;21895;47.072;15.132;2022-12-07T04:24:30;9.80;;;4.20;;
20928;SDS011;21895;47.072;15.132;2022-12-07T04:26:57;11.77;;;4.93;;
20928;SDS011;21895;47.072;15.132;2022-12-07T04:29:23;9.07;;;4.73;;
20928;SDS011;21895;47.072;15.132;2022-12-07T04:31:51;9.30;;;4.37;;
20928;SDS011;21895;47.072;15.132;2022-12-07T04:34:19;11.67;;;5.03;;
20928;SDS011;21895;47.072;15.132;2022-12-07T04:36:46;9.97;;;4.63;;
20928;SDS011;21895;47.072;15.132;2022-12-07T04:39:17;9.20;;;4.17;;
20928;SDS011;21895;47.072;15.132;2022-12-07T04:41:48;13.43;;;4.63;;
20928;SDS011;21895;47.072;15.132;2022-12-07T04:44:15;11.97;;;4.50;;
20928;SDS011;21895;47.072;15.132;2022-12-07T04:46:43;9.23;;;4.60;;
20928;SDS011;21895;47.072;15.132;2022-12-07T04:49:12;8.60;;;4.33;;
20928;SDS011;21895;47.072;15.132;2022-12-07T04:51:39;13.40;;;5.50;;
20928;SDS011;21895;47.072;15.132;2022-12-07T04:54:06;10.93;;;4.80;;
20928;SDS011;21895;47.072;15.132;2022-12-07T04:56:34;10.93;;;4.50;;
20928;SDS011;21895;47.072;15.132;2022-12-07T04:59:01;10.77;;;4.20;;
20928;SDS011;21895;47.072;15.132;2022-12-07T05:01:28;11.90;;;4.77;;
20928;SDS011;21895;47.072;15.132;2022-12-07T05:03:55;12.77;;;3.93;;
20928;SDS011;21895;47.072;15.132;2022-12-07T05:06:22;11.00;;;4.43;;
20928;SDS011;21895;47.072;15.132;2022-12-07T05:08:48;11.13;;;4.37;;
20928;SDS011;21895;47.072;15.132;2022-12-07T05:11:15;9.07;;;3.83;;
20928;SDS011;21895;47.072;15.132;2022-12-07T05:14:00;9.97;;;4.03;;
20928;SDS011;21895;47.072;15.132;2022-12-07T05:16:33;9.90;;;4.17;;
20928;SDS011;21895;47.072;15.132;2022-12-07T05:19:00;8.70;;;4.03;;
20928;SDS011;21895;47.072;15.132;2022-12-07T05:21:26;7.67;;;3.70;;
20928;SDS011;21895;47.072;15.132;2022-12-07T05:23:53;13.73;;;4.43;;
20928;SDS011;21895;47.072;15.132;2022-12-07T05:26:20;11.13;;;4.27;;
20928;SDS011;21895;47.072;15.132;2022-12-07T05:28:49;14.10;;;4.10;;
20928;SDS011;21895;47.072;15.132;2022-12-07T05:31:18;14.40;;;4.77;;
20928;SDS011;21895;47.072;15.132;2022-12-07T05:33:44;10.17;;;4.33;;
20928;SDS011;21895;47.072;15.132;2022-12-07T05:36:11;9.97;;;4.07;;
20928;SDS011;21895;47.072;15.132;2022-12-07T05:38:37;9.60;;;4.03;;
20928;SDS011;21895;47.072;15.132;2022-12-07T05:41:05;9.20;;;3.73;;
20928;SDS011;21895;47.072;15.132;2022-12-07T05:44:37;9.83;;;4.13;;
20928;SDS011;21895;47.072;15.132;2022-12-07T05:47:04;15.63;;;3.83;;
20928;SDS011;21895;47.072;15.132;2022-12-07T05:49:31;11.50;;;4.40;;
20928;SDS011;21895;47.072;15.132;2022-12-07T05:51:57;11.40;;;4.77;;
20928;SDS011;21895;47.072;15.132;2022-12-07T05:54:24;8.43;;;3.90;;
20928;SDS011;21895;47.072;15.132;2022-12-07T05:56:51;10.43;;;4.10;;
20928;SDS011;21895;47.072;15.132;2022-12-07T05:59:17;11.10;;;4.50;;
20928;SDS011;21895;47.072;15.132;2022-12-07T06:01:51;10.20;;;4.27;;
20928;SDS011;21895;47.072;15.132;2022-12-07T06:04:28;9.37;;;4.07;;
20928;SDS011;21895;47.072;15.132;2022-12-07T06:06:59;11.53;;;4.40;;
20928;SDS011;21895;47.072;15.132;2022-12-07T06:09:26;9.30;;;3.73;;
20928;SDS011;21895;47.072;15.132;2022-12-07T06:11:54;13.37;;;3.50;;
20928;SDS011;21895;47.072;15.132;2022-12-07T06:14:40;7.87;;;3.47;;
20928;SDS011;21895;47.072;15.132;2022-12-07T06:17:07;8.53;;;3.53;;
20928;SDS011;21895;47.072;15.132;2022-12-07T06:19:34;13.33;;;3.33;;
20928;SDS011;21895;47.072;15.132;2022-12-07T06:22:01;9.10;;;4.30;;
20928;SDS011;21895;47.072;15.132;2022-12-07T06:24:28;8.97;;;3.80;;
20928;SDS011;21895;47.072;15.132;2022-12-07T06:26:54;9.70;;;3.60;;
20928;SDS011;21895;47.072;15.132;2022-12-07T06:29:21;7.60;;;3.80;;
20928;SDS011;21895;47.072;15.132;2022-12-07T06:31:47;8.50;;;3.83;;
20928;SDS011;21895;47.072;15.132;2022-12-07T06:34:18;21.77;;;3.53;;
20928;SDS011;21895;47.072;15.132;2022-12-07T06:36:48;8.70;;;3.60;;
20928;SDS011;21895;47.072;15.132;2022-12-07T06:39:24;8.07;;;3.60;;
20928;SDS011;21895;47.072;15.132;2022-12-07T06:41:52;8.47;;;3.90;;
20928;SDS011;21895;47.072;15.132;2022-12-07T06:44:19;6.57;;;3.07;;
20928;SDS011;21895;47.072;15.132;2022-12-07T06:46:47;8.03;;;4.03;;
20928;SDS011;21895;47.072;15.132;2022-12-07T06:49:15;8.03;;;3.23;;
20928;SDS011;21895;47.072;15.132;2022-12-07T06:51:41;8.73;;;3.63;;
20928;SDS011;21895;47.072;15.132;2022-12-07T06:54:09;11.07;;;3.40;;
20928;SDS011;21895;47.072;15.132;2022-12-07T06:56:38;17.77;;;3.53;;
20928;SDS011;21895;47.072;15.132;2022-12-07T06:59:05;8.77;;;3.53;;
20928;SDS011;21895;47.072;15.132;2022-12-07T07:01:32;6.47;;;3.00;;
20928;SDS011;21895;47.072;15.132;2022-12-07T07:04:01;7.97;;;3.40;;
20928;SDS011;21895;47.072;15.132;2022-12-07T07:06:27;8.33;;;3.63;;
20928;SDS011;21895;47.072;15.132;2022-12-07T07:08:54;6.47;;;2.90;;
20928;SDS011;21895;47.072;15.132;2022-12-07T07:11:20;6.00;;;2.63;;
20928;SDS011;21895;47.072;15.132;2022-12-07T07:13:47;7.87;;;3.03;;
20928;SDS011;21895;47.072;15.132;2022-12-07T07:16:13;11.03;;;3.37;;
20928;SDS011;21895;47.072;15.132;2022-12-07T07:18:40;6.37;;;2.90;;
20928;SDS011;21895;47.072;15.132;2022-12-07T07:21:07;5.33;;;2.80;;
20928;SDS011;21895;47.072;15.132;2022-12-07T07:23:33;9.33;;;3.43;;
20928;SDS011;21895;47.072;15.132;2022-12-07T07:25:59;7.53;;;3.53;;
20928;SDS011;21895;47.072;15.132;2022-12-07T07:28:26;5.87;;;3.47;;
20928;SDS011;21895;47.072;15.132;2022-12-07T07:30:52;7.23;;;3.00;;
20928;SDS011;21895;47.072;15.132;2022-12-07T07:33:19;8.77;;;3.57;;
20928;SDS011;21895;47.072;15.132;2022-12-07T07:35:46;8.73;;;3.50;;
20928;SDS011;21895;47.072;15.132;2022-12-07T07:38:12;13.70;;;5.03;;
20928;SDS011;21895;47.072;15.132;2022-12-07T07:40:38;14.43;;;5.67;;
20928;SDS011;21895;47.072;15.132;2022-12-07T07:43:05;14.17;;;6.20;;
20928;SDS011;21895;47.072;15.132;2022-12-07T07:45:32;13.20;;;5.30;;
20928;SDS011;21895;47.072;15.132;2022-12-07T07:47:58;12.57;;;5.10;;
20928;SDS011;21895;47.072;15.132;2022-12-07T07:50:25;14.57;;;5.70;;
20928;SDS011;21895;47.072;15.132;2022-12-07T07:52:51;21.50;;;8.50;;
20928;SDS011;21895;47.072;15.132;2022-12-07T07:55:18;29.33;;;8.40;;
20928;SDS011;21895;47.072;15.132;2022-12-07T07:57:44;12.63;;;4.83;;
20928;SDS011;21895;47.072;15.132;2022-12-07T08:00:19;10.77;;;5.03;;
20928;SDS011;21895;47.072;15.132;2022-12-07T08:02:47;12.27;;;4.83;;
20928;SDS011;21895;47.072;15.132;2022-12-07T08:05:13;11.63;;;4.73;;
20928;SDS011;21895;47.072;15.132;2022-12-07T08:07:40;11.37;;;5.10;;
20928;SDS011;21895;47.072;15.132;2022-12-07T08:10:07;32.00;;;8.87;;
20928;SDS011;21895;47.072;15.132;2022-12-07T08:12:37;32.47;;;12.33;;
20928;SDS011;21895;47.072;15.132;2022-12-07T08:15:36;26.73;;;10.17;;
20928;SDS011;21895;47.072;15.132;2022-12-07T08:18:04;30.13;;;12.00;;
20928;SDS011;21895;47.072;15.132;2022-12-07T08:20:31;28.57;;;11.63;;
20928;SDS011;21895;47.072;15.132;2022-12-07T08:22:59;31.40;;;11.93;;
20928;SDS011;21895;47.072;15.132;2022-12-07T08:25:26;31.07;;;11.63;;
20928;SDS011;21895;47.072;15.132;2022-12-07T08:27:53;28.50;;;11.03;;
20928;SDS011;21895;47.072;15.132;2022-12-07T08:30:20;19.90;;;9.10;;
20928;SDS011;21895;47.072;15.132;2022-12-07T08:32:47;23.13;;;7.67;;
20928;SDS011;21895;47.072;15.132;2022-12-07T08:35:15;16.47;;;6.87;;
20928;SDS011;21895;47.072;15.132;2022-12-07T08:37:41;16.90;;;7.60;;
20928;SDS011;21895;47.072;15.132;2022-12-07T08:40:08;15.97;;;6.30;;
20928;SDS011;21895;47.072;15.132;2022-12-07T08:42:41;20.70;;;7.80;;
20928;SDS011;21895;47.072;15.132;2022-12-07T08:45:10;21.00;;;7.63;;
20928;SDS011;21895;47.072;15.132;2022-12-07T08:47:41;16.93;;;8.37;;
20928;SDS011;21895;47.072;15.132;2022-12-07T08:50:43;20.20;;;7.17;;
20928;SDS011;21895;47.072;15.132;2022-12-07T08:53:15;15.60;;;7.43;;
20928;SDS011;21895;47.072;15.132;2022-12-07T08:55:43;19.20;;;8.10;;
20928;SDS011;21895;47.072;15.132;2022-12-07T08:58:14;14.80;;;7.17;;
20928;SDS011;21895;47.072;15.132;2022-12-07T09:00:40;19.43;;;7.10;;
20928;SDS011;21895;47.072;15.132;2022-12-07T09:03:07;17.70;;;7.00;;
20928;SDS011;21895;47.072;15.132;2022-12-07T09:05:33;20.87;;;7.73;;
20928;SDS011;21895;47.072;15.132;2022-12-07T09:08:01;19.37;;;7.40;;
20928;SDS011;21895;47.072;15.132;2022-12-07T09:10:28;16.43;;;7.20;;
20928;SDS011;21895;47.072;15.132;2022-12-07T09:12:55;14.13;;;6.33;;
20928;SDS011;21895;47.072;15.132;2022-12-07T09:15:29;14.27;;;6.67;;
20928;SDS011;21895;47.072;15.132;2022-12-07T09:17:56;15.20;;;7.60;;
20928;SDS011;21895;47.072;15.132;2022-12-07T09:20:23;20.57;;;8.03;;
20928;SDS011;21895;47.072;15.132;2022-12-07T09:22:53;13.77;;;6.40;;
20928;SDS011;21895;47.072;15.132;2022-12-07T09:25:19;17.00;;;5.70;;
20928;SDS011;21895;47.072;15.132;2022-12-07T09:27:46;8.63;;;4.87;;
20928;SDS011;21895;47.072;15.132;2022-12-07T09:30:12;17.90;;;5.13;;
20928;SDS011;21895;47.072;15.132;2022-12-07T09:32:39;17.83;;;6.97;;
20928;SDS011;21895;47.072;15.132;2022-12-07T09:35:06;16.60;;;6.57;;
20928;SDS011;21895;47.072;15.132;2022-12-07T09:37:32;21.43;;;8.07;;
20928;SDS011;21895;47.072;15.132;2022-12-07T09:40:02;18.13;;;8.60;;
20928;SDS011;21895;47.072;15.132;2022-12-07T09:42:34;24.33;;;7.60;;
20928;SDS011;21895;47.072;15.132;2022-12-07T09:45:39;16.40;;;6.63;;
20928;SDS011;21895;47.072;15.132;2022-12-07T09:48:19;13.00;;;6.10;;
20928;SDS011;21895;47.072;15.132;2022-12-07T09:50:55;15.93;;;7.13;;
20928;SDS011;21895;47.072;15.132;2022-12-07T09:53:33;19.37;;;7.33;;
20928;SDS011;21895;47.072;15.132;2022-12-07T09:56:03;17.17;;;7.90;;
20928;SDS011;21895;47.072;15.132;2022-12-07T09:58:31;20.17;;;8.83;;
20928;SDS011;21895;47.072;15.132;2022-12-07T10:01:00;18.60;;;8.57;;
20928;SDS011;21895;47.072;15.132;2022-12-07T10:03:38;15.73;;;7.10;;
20928;SDS011;21895;47.072;15.132;2022-12-07T10:06:10;14.73;;;6.17;;
20928;SDS011;21895;47.072;15.132;2022-12-07T10:08:38;11.40;;;5.97;;
20928;SDS011;21895;47.072;15.132;2022-12-07T10:11:06;14.47;;;6.97;;
20928;SDS011;21895;47.072;15.132;2022-12-07T10:13:38;14.13;;;5.83;;
20928;SDS011;21895;47.072;15.132;2022-12-07T10:19:22;18.63;;;7.23;;
20928;SDS011;21895;47.072;15.132;2022-12-07T10:22:15;16.83;;;7.83;;
20928;SDS011;21895;47.072;15.132;2022-12-07T10:24:43;17.10;;;7.73;;
20928;SDS011;21895;47.072;15.132;2022-12-07T10:27:19;19.17;;;7.23;;
20928;SDS011;21895;47.072;15.132;2022-12-07T10:29:58;19.77;;;7.87;;
20928;SDS011;21895;47.072;15.132;2022-12-07T10:32:28;21.50;;;7.67;;
20928;SDS011;21895;47.072;15.132;2022-12-07T10:35:19;21.83;;;9.40;;
20928;SDS011;21895;47.072;15.132;2022-12-07T10:37:56;16.90;;;8.40;;
20928;SDS011;21895;47.072;15.132;2022-12-07T10:40:34;18.93;;;8.20;;
20928;SDS011;21895;47.072;15.132;2022-12-07T10:43:15;22.63;;;8.67;;
20928;SDS011;21895;47.072;15.132;2022-12-07T10:54:10;19.60;;;8.47;;
20928;SDS011;21895;47.072;15.132;2022-12-07T10:58:42;18.03;;;7.17;;
20928;SDS011;21895;47.072;15.132;2022-12-07T11:01:50;17.97;;;7.47;;
20928;SDS011;21895;47.072;15.132;2022-12-07T11:06:22;14.93;;;6.67;;
20928;SDS011;21895;47.072;15.132;2022-12-07T11:11:06;19.63;;;6.43;;
20928;SDS011;21895;47.072;15.132;2022-12-07T11:14:10;19.73;;;6.20;;
20928;SDS011;21895;47.072;15.132;2022-12-07T11:18:32;21.20;;;6.07;;
20928;SDS011;21895;47.072;15.132;2022-12-07T11:25:23;10.80;;;4.50;;
20928;SDS011;21895;47.072;15.132;2022-12-07T11:28:13;14.23;;;4.40;;
20928;SDS011;21895;47.072;15.132;2022-12-07T11:31:36;9.53;;;4.40;;
20928;SDS011;21895;47.072;15.132;2022-12-07T11:35:17;16.20;;;4.77;;
20928;SDS011;21895;47.072;15.132;2022-12-07T11:38:18;12.10;;;4.77;;
20928;SDS011;21895;47.072;15.132;2022-12-07T11:41:17;17.63;;;6.40;;
20928;SDS011;21895;47.072;15.132;2022-12-07T11:44:19;14.73;;;6.10;;
20928;SDS011;21895;47.072;15.132;2022-12-07T11:48:32;11.50;;;5.90;;
20928;SDS011;21895;47.072;15.132;2022-12-07T11:51:12;17.10;;;6.37;;
20928;SDS011;21895;47.072;15.132;2022-12-07T11:53:49;18.07;;;7.07;;
20928;SDS011;21895;47.072;15.132;2022-12-07T11:56:26;19.77;;;7.23;;
20928;SDS011;21895;47.072;15.132;2022-12-07T11:59:10;18.33;;;6.97;;
20928;SDS011;21895;47.072;15.132;2022-12-07T12:02:15;16.63;;;5.97;;
20928;SDS011;21895;47.072;15.132;2022-12-07T12:08:23;16.50;;;7.33;;
20928;SDS011;21895;47.072;15.132;2022-12-07T12:22:06;14.73;;;7.00;;
20928;SDS011;21895;47.072;15.132;2022-12-07T12:24:43;14.20;;;6.63;;
20928;SDS011;21895;47.072;15.132;2022-12-07T12:27:32;24.63;;;7.23;;
20928;SDS011;21895;47.072;15.132;2022-12-07T12:33:04;14.17;;;5.30;;
20928;SDS011;21895;47.072;15.132;2022-12-07T12:35:41;19.57;;;8.10;;
20928;SDS011;21895;47.072;15.132;2022-12-07T12:42:05;16.03;;;7.37;;
20928;SDS011;21895;47.072;15.132;2022-12-07T12:45:03;15.87;;;6.93;;
20928;SDS011;21895;47.072;15.132;2022-12-07T12:47:59;16.47;;;6.57;;
20928;SDS011;21895;47.072;15.132;2022-12-07T12:50:31;16.71;;;7.59;;
20928;SDS011;21895;47.072;15.132;2022-12-07T12:53:20;11.43;;;6.07;;
20928;SDS011;21895;47.072;15.132;2022-12-07T12:56:16;13.53;;;6.23;;
20928;SDS011;21895;47.072;15.132;2022-12-07T13:00:27;22.00;;;6.10;;
20928;SDS011;21895;47.072;15.132;2022-12-07T13:02:55;16.97;;;7.83;;
20928;SDS011;21895;47.072;15.132;2022-12-07T13:05:26;20.13;;;8.30;;
20928;SDS011;21895;47.072;15.132;2022-12-07T13:11:17;17.80;;;7.87;;
20928;SDS011;21895;47.072;15.132;2022-12-07T13:22:40;16.50;;;7.47;;
20928;SDS011;21895;47.072;15.132;2022-12-07T13:25:34;16.27;;;7.37;;
20928;SDS011;21895;47.072;15.132;2022-12-07T13:28:13;11.90;;;6.53;;
20928;SDS011;21895;47.072;15.132;2022-12-07T13:34:55;28.53;;;8.97;;
20928;SDS011;21895;47.072;15.132;2022-12-07T13:37:28;17.37;;;8.27;;
20928;SDS011;21895;47.072;15.132;2022-12-07T13:40:20;20.00;;;9.07;;
20928;SDS011;21895;47.072;15.132;2022-12-07T13:42:48;17.83;;;8.40;;
20928;SDS011;21895;47.072;15.132;2022-12-07T13:45:31;16.30;;;7.37;;
20928;SDS011;21895;47.072;15.132;2022-12-07T13:51:46;21.07;;;8.97;;
20928;SDS011;21895;47.072;15.132;2022-12-07T13:54:14;22.63;;;9.17;;
20928;SDS011;21895;47.072;15.132;2022-12-07T13:56:40;21.00;;;9.23;;
20928;SDS011;21895;47.072;15.132;2022-12-07T13:59:18;18.00;;;8.37;;
20928;SDS011;21895;47.072;15.132;2022-12-07T14:01:49;18.03;;;7.80;;
20928;SDS011;21895;47.072;15.132;2022-12-07T14:04:36;18.93;;;7.33;;
20928;SDS011;21895;47.072;15.132;2022-12-07T14:07:20;14.23;;;6.87;;
20928;SDS011;21895;47.072;15.132;2022-12-07T14:09:59;14.57;;;6.43;;
20928;SDS011;21895;47.072;15.132;2022-12-07T14:12:29;15.57;;;6.97;;
20928;SDS011;21895;47.072;15.132;2022-12-07T14:14:58;15.37;;;6.67;;
20928;SDS011;21895;47.072;15.132;2022-12-07T14:17:28;15.03;;;6.70;;
20928;SDS011;21895;47.072;15.132;2022-12-07T14:19:59;16.70;;;6.60;;
20928;SDS011;21895;47.072;15.132;2022-12-07T14:22:37;31.60;;;8.73;;
20928;SDS011;21895;47.072;15.132;2022-12-07T14:25:18;16.03;;;7.67;;
20928;SDS011;21895;47.072;15.132;2022-12-07T14:27:49;18.67;;;8.50;;
20928;SDS011;21895;47.072;15.132;2022-12-07T14:30:25;24.17;;;8.07;;
20928;SDS011;21895;47.072;15.132;2022-12-07T14:33:00;16.27;;;7.40;;
20928;SDS011;21895;47.072;15.132;2022-12-07T14:35:30;12.77;;;6.60;;
20928;SDS011;21895;47.072;15.132;2022-12-07T14:38:00;13.97;;;7.30;;
20928;SDS011;21895;47.072;15.132;2022-12-07T14:40:27;17.00;;;8.03;;
20928;SDS011;21895;47.072;15.132;2022-12-07T14:43:05;16.27;;;7.77;;
20928;SDS011;21895;47.072;15.132;2022-12-07T14:45:38;21.60;;;7.83;;
20928;SDS011;21895;47.072;15.132;2022-12-07T14:48:05;17.27;;;8.17;;
20928;SDS011;21895;47.072;15.132;2022-12-07T14:51:07;17.23;;;7.90;;
20928;SDS011;21895;47.072;15.132;2022-12-07T14:54:11;19.90;;;7.87;;
20928;SDS011;21895;47.072;15.132;2022-12-07T14:56:44;18.93;;;7.57;;
20928;SDS011;21895;47.072;15.132;2022-12-07T14:59:14;17.67;;;8.30;;
20928;SDS011;21895;47.072;15.132;2022-12-07T15:01:42;22.33;;;8.07;;
20928;SDS011;21895;47.072;15.132;2022-12-07T15:04:09;20.80;;;9.10;;
20928;SDS011;21895;47.072;15.132;2022-12-07T15:06:35;28.83;;;11.43;;
20928;SDS011;21895;47.072;15.132;2022-12-07T15:09:02;32.30;;;13.47;;
20928;SDS011;21895;47.072;15.132;2022-12-07T15:11:29;30.23;;;12.47;;
20928;SDS011;21895;47.072;15.132;2022-12-07T15:13:56;20.43;;;10.10;;
20928;SDS011;21895;47.072;15.132;2022-12-07T15:16:35;21.97;;;9.07;;
20928;SDS011;21895;47.072;15.132;2022-12-07T15:19:33;17.00;;;7.47;;
20928;SDS011;21895;47.072;15.132;2022-12-07T15:21:59;21.83;;;9.10;;
20928;SDS011;21895;47.072;15.132;2022-12-07T15:24:26;19.90;;;8.70;;
20928;SDS011;21895;47.072;15.132;2022-12-07T15:26:53;25.23;;;8.90;;
20928;SDS011;21895;47.072;15.132;2022-12-07T15:29:19;20.13;;;8.70;;
20928;SDS011;21895;47.072;15.132;2022-12-07T15:31:52;31.10;;;13.17;;
20928;SDS011;21895;47.072;15.132;2022-12-07T15:34:23;35.83;;;14.90;;
20928;SDS011;21895;47.072;15.132;2022-12-07T15:36:57;36.37;;;14.97;;
20928;SDS011;21895;47.072;15.132;2022-12-07T15:39:23;43.93;;;15.87;;
20928;SDS011;21895;47.072;15.132;2022-12-07T15:41:50;40.90;;;15.53;;
20928;SDS011;21895;47.072;15.132;2022-12-07T15:44:16;36.17;;;14.23;;
20928;SDS011;21895;47.072;15.132;2022-12-07T15:47:01;26.40;;;9.97;;
20928;SDS011;21895;47.072;15.132;2022-12-07T15:49:29;21.40;;;9.27;;
20928;SDS011;21895;47.072;15.132;2022-12-07T15:51:56;18.40;;;8.80;;
20928;SDS011;21895;47.072;15.132;2022-12-07T15:54:23;23.33;;;10.47;;
20928;SDS011;21895;47.072;15.132;2022-12-07T15:56:53;24.30;;;10.27;;
20928;SDS011;21895;47.072;15.132;2022-12-07T15:59:20;34.90;;;12.97;;
20928;SDS011;21895;47.072;15.132;2022-12-07T16:01:47;32.77;;;14.07;;
20928;SDS011;21895;47.072;15.132;2022-12-07T16:04:17;27.57;;;10.87;;
20928;SDS011;21895;47.072;15.132;2022-12-07T16:06:44;23.27;;;9.37;;
20928;SDS011;21895;47.072;15.132;2022-12-07T16:09:10;40.43;;;10.10;;
20928;SDS011;21895;47.072;15.132;2022-12-07T16:11:37;21.47;;;10.20;;
20928;SDS011;21895;47.072;15.132;2022-12-07T16:14:04;27.30;;;9.97;;
20928;SDS011;21895;47.072;15.132;2022-12-07T16:16:30;22.07;;;9.47;;
20928;SDS011;21895;47.072;15.132;2022-12-07T16:18:57;19.40;;;9.37;;
20928;SDS011;21895;47.072;15.132;2022-12-07T16:21:24;24.03;;;9.50;;
20928;SDS011;21895;47.072;15.132;2022-12-07T16:23:51;23.67;;;10.13;;
20928;SDS011;21895;47.072;15.132;2022-12-07T16:26:18;23.70;;;10.13;;
20928;SDS011;21895;47.072;15.132;2022-12-07T16:28:51;25.43;;;9.53;;
20928;SDS011;21895;47.072;15.132;2022-12-07T16:31:20;25.60;;;9.73;;
20928;SDS011;21895;47.072;15.132;2022-12-07T16:33:51;30.37;;;11.80;;